createdAt,value
2019-01-16T07:41:59.978Z,55.81
2019-01-16T07:44:07.519Z,55.62
2019-01-16T07:46:16.966Z,55.36
2019-01-16T07:55:39.838Z,55.08
2019-01-16T07:59:57.798Z,54.75
2019-01-16T08:02:12.170Z,55.09
2019-01-16T08:06:30.210Z,55.08
2019-01-16T08:08:44.170Z,55.06
2019-01-16T08:10:57.684Z,55.17
2019-01-16T08:13:08.343Z,55.14
2019-01-16T08:15:21.898Z,55.27
2019-01-16T08:17:31.308Z,55.02
2019-01-16T08:19:40.744Z,55.30
2019-01-16T08:21:55.121Z,55.15
2019-01-16T08:24:02.484Z,55.09
2019-01-16T08:26:11.094Z,54.81
2019-01-16T08:28:25.062Z,55.02
2019-01-16T08:30:32.429Z,54.75
2019-01-16T08:34:27.934Z,54.79
2019-01-16T08:36:35.348Z,54.66
2019-01-16T08:38:42.719Z,54.70
2019-01-16T08:40:57.100Z,55.33
2019-01-16T08:43:04.460Z,55.52
2019-01-16T08:45:11.850Z,54.36
2019-01-16T08:47:26.230Z,54.54
2019-01-16T08:49:34.816Z,54.86
2019-01-16T08:51:44.249Z,54.80
2019-01-16T08:53:58.210Z,54.74
2019-01-16T08:56:06.808Z,54.48
2019-01-16T08:58:14.190Z,54.85
2019-01-16T09:00:28.191Z,54.68
2019-01-16T09:02:35.522Z,54.70
2019-01-16T09:04:42.908Z,55.05
2019-01-16T09:06:57.282Z,54.80
2019-01-16T09:09:11.220Z,54.54
2019-01-16T09:11:18.588Z,54.69
2019-01-16T09:13:25.975Z,54.76
2019-01-16T09:15:40.349Z,53.90
2019-01-16T09:17:47.718Z,54.23
2019-01-16T09:19:55.105Z,53.18
2019-01-16T09:22:09.058Z,53.90
2019-01-16T09:24:18.474Z,54.32
2019-01-16T09:26:25.860Z,53.84
2019-01-16T09:30:22.347Z,53.18
2019-01-16T09:32:30.003Z,52.81
2019-01-16T09:34:43.551Z,52.81
2019-01-16T09:36:50.920Z,53.45
2019-01-16T09:38:59.537Z,52.58
2019-01-16T09:41:14.732Z,52.80
2019-01-16T09:43:22.098Z,52.60
2019-01-16T09:45:30.710Z,52.30
2019-01-16T09:47:44.672Z,52.62
2019-01-16T09:49:53.266Z,52.23
2019-01-16T09:52:06.797Z,52.23
2019-01-16T09:54:20.756Z,52.72
2019-01-16T09:56:28.126Z,52.43
2019-01-16T09:58:35.512Z,52.18
2019-01-16T10:00:49.476Z,52.53
2019-01-16T10:02:58.069Z,52.30
2019-01-16T10:05:05.458Z,52.38
2019-01-16T10:07:20.650Z,52.45
2019-01-16T10:09:28.011Z,52.24
2019-01-16T10:11:36.629Z,52.41
2019-01-16T10:13:50.590Z,52.38
2019-01-16T10:15:59.187Z,52.13
2019-01-16T10:18:07.802Z,52.15
2019-01-16T10:20:25.452Z,52.49
2019-01-16T10:22:32.816Z,52.12
2019-01-16T10:24:40.250Z,52.06
2019-01-16T10:26:54.579Z,51.94
2019-01-16T10:29:03.991Z,52.04
2019-01-16T10:31:12.605Z,52.31
2019-01-16T10:33:30.665Z,51.92
2019-01-16T10:35:38.026Z,52.38
2019-01-16T10:37:46.653Z,51.83
2019-01-16T10:40:00.608Z,52.63
2019-01-16T10:42:14.566Z,51.75
2019-01-16T10:44:32.657Z,51.63
2019-01-16T10:46:39.961Z,51.55
2019-01-16T10:48:49.792Z,51.62
2019-01-16T10:51:03.289Z,51.87
2019-01-16T10:53:10.319Z,51.95
2019-01-16T10:55:18.928Z,51.50
2019-01-16T10:57:32.481Z,51.44
2019-01-16T10:59:39.841Z,51.82
2019-01-16T11:01:47.232Z,51.49
2019-01-16T11:04:01.606Z,51.33
2019-01-16T11:06:08.969Z,51.68
2019-01-16T11:08:17.584Z,51.48
2019-01-16T11:10:31.548Z,51.64
2019-01-16T11:12:38.913Z,51.46
2019-01-16T11:14:52.503Z,51.43
2019-01-16T11:17:07.635Z,51.25
2019-01-16T11:19:15.005Z,51.03
2019-01-16T11:21:23.614Z,51.01
2019-01-16T11:23:37.580Z,51.38
2019-01-16T11:25:46.997Z,51.35
2019-01-16T11:27:54.380Z,50.87
2019-01-16T11:30:10.810Z,50.93
2019-01-16T11:32:18.167Z,51.23
2019-01-16T11:34:26.815Z,50.79
2019-01-16T11:36:44.840Z,50.77
2019-01-16T11:38:52.204Z,51.12
2019-01-16T11:40:59.589Z,51.20
2019-01-16T11:43:14.782Z,51.14
2019-01-16T11:45:23.384Z,50.95
2019-01-16T11:47:30.774Z,50.99
2019-01-16T11:49:44.736Z,50.69
2019-01-16T11:51:59.489Z,51.04
2019-01-16T11:54:06.860Z,50.92
2019-01-16T11:56:20.178Z,50.81
2019-01-16T12:00:14.652Z,50.61
2019-01-16T12:02:25.342Z,50.60
2019-01-16T12:06:21.839Z,50.78
2019-01-16T12:08:29.480Z,50.43
2019-01-16T12:10:43.031Z,50.79
2019-01-16T12:12:50.401Z,50.49
2019-01-16T12:14:57.785Z,50.54
2019-01-16T12:17:14.208Z,50.58
2019-01-16T12:19:25.672Z,50.34
2019-01-16T12:21:42.091Z,50.33
2019-01-16T12:23:49.453Z,50.65
2019-01-16T12:25:58.089Z,50.20
2019-01-16T12:29:52.573Z,50.54
2019-01-16T12:32:10.833Z,47.85
2019-01-16T12:34:18.195Z,44.27
2019-01-16T12:36:25.589Z,46.73
2019-01-16T12:38:42.006Z,47.07
2019-01-16T12:40:50.600Z,47.84
2019-01-16T12:42:57.996Z,48.35
2019-01-16T12:45:11.953Z,49.23
2019-01-16T12:47:21.366Z,49.18
2019-01-16T12:49:29.978Z,49.09
2019-01-16T12:51:43.941Z,49.17
2019-01-16T12:53:53.358Z,49.21
2019-01-16T12:56:01.974Z,49.26
2019-01-16T12:58:15.946Z,49.27
2019-01-16T13:00:23.300Z,49.36
2019-01-16T13:02:31.914Z,49.41
2019-01-16T13:04:49.980Z,49.38
2019-01-16T13:06:59.390Z,49.44
2019-01-16T13:09:06.774Z,49.51
2019-01-16T13:11:21.965Z,49.53
2019-01-16T13:13:30.565Z,49.92
2019-01-16T13:15:12.561Z,50.03
2019-01-16T13:17:26.923Z,49.81
2019-01-16T13:19:34.293Z,49.75
2019-01-16T13:21:41.676Z,49.76
2019-01-16T13:23:55.698Z,49.90
2019-01-16T13:26:03.418Z,49.88
2019-01-16T13:28:10.805Z,49.95
2019-01-16T13:30:42.700Z,49.29
2019-01-16T13:32:56.316Z,47.93
2019-01-16T13:35:11.058Z,47.43
2019-01-16T13:37:18.446Z,46.96
2019-01-16T13:39:32.409Z,46.92
2019-01-16T13:43:58.217Z,47.07
2019-01-16T13:46:12.183Z,46.92
2019-01-16T13:50:08.660Z,47.27
2019-01-16T13:54:04.147Z,47.77
2019-01-16T13:56:11.818Z,48.04
2019-01-16T13:58:26.193Z,48.12
2019-01-16T14:00:33.557Z,48.03
2019-01-16T14:02:40.963Z,48.03
2019-01-16T14:04:56.559Z,48.10
2019-01-16T14:08:52.046Z,48.02
2019-01-16T14:11:10.115Z,48.06
2019-01-16T14:13:18.699Z,47.92
2019-01-16T14:15:33.532Z,47.94
2019-01-16T14:17:41.262Z,48.08
2019-01-16T14:19:50.696Z,48.07
2019-01-16T14:22:06.298Z,47.60
2019-01-16T14:24:14.889Z,47.40
2019-01-16T14:26:28.423Z,47.36
2019-01-16T14:28:43.202Z,47.82
2019-01-16T14:30:50.576Z,47.85
2019-01-16T14:33:04.123Z,47.46
2019-01-16T14:35:11.485Z,47.33
2019-01-16T14:37:18.875Z,47.43
2019-01-16T14:39:33.246Z,47.39
2019-01-16T14:41:46.807Z,47.67
2019-01-16T14:43:54.140Z,47.54
2019-01-16T14:46:10.158Z,47.60
2019-01-16T14:48:17.518Z,47.46
2019-01-16T14:50:24.912Z,47.62
2019-01-16T14:52:39.278Z,47.90
2019-01-16T14:54:46.646Z,47.81
2019-01-16T14:56:55.262Z,47.65
2019-01-16T14:59:09.228Z,47.79
2019-01-16T15:01:16.587Z,48.13
2019-01-16T15:03:23.980Z,48.61
2019-01-16T15:05:38.353Z,47.59
2019-01-16T15:07:45.717Z,47.94
2019-01-16T15:09:53.103Z,47.97
2019-01-16T15:12:07.482Z,48.07
2019-01-16T15:14:14.839Z,48.25
2019-01-16T15:16:22.226Z,48.21
2019-01-16T15:18:36.188Z,47.78
2019-01-16T15:20:43.960Z,47.48
2019-01-16T15:22:52.578Z,47.66
2019-01-16T15:25:07.360Z,47.91
2019-01-16T15:27:14.726Z,47.88
2019-01-16T15:29:22.114Z,47.68
2019-01-16T15:31:36.491Z,47.69
2019-01-16T15:33:45.902Z,47.80
2019-01-16T15:35:58.215Z,47.79
2019-01-16T15:38:08.477Z,47.69
2019-01-16T15:40:15.846Z,47.70
2019-01-16T15:42:23.229Z,47.66
2019-01-16T15:44:38.422Z,47.71
2019-01-16T15:46:47.839Z,47.75
2019-01-16T15:48:55.222Z,47.85
2019-01-16T15:51:09.189Z,47.89
2019-01-16T15:53:18.598Z,47.58
2019-01-16T15:55:33.385Z,47.58
2019-01-16T15:57:41.974Z,47.70
2019-01-16T15:59:49.360Z,47.91
2019-01-16T16:02:03.331Z,47.71
2019-01-16T16:04:10.696Z,47.63
2019-01-16T16:06:18.078Z,47.47
2019-01-16T16:08:32.449Z,47.72
2019-01-16T16:10:43.097Z,47.90
2019-01-16T16:12:50.479Z,47.70
2019-01-16T16:15:04.444Z,47.51
2019-01-16T16:17:11.810Z,47.59
2019-01-16T16:19:19.205Z,48.07
2019-01-16T16:21:33.159Z,48.33
2019-01-16T16:23:41.758Z,47.90
2019-01-16T16:25:49.147Z,48.18
2019-01-16T16:28:04.331Z,48.50
2019-01-16T16:30:12.928Z,49.02
2019-01-16T16:32:21.546Z,50.50
2019-01-16T16:34:35.507Z,50.84
2019-01-16T16:36:46.150Z,49.18
2019-01-16T16:38:53.537Z,48.80
2019-01-16T16:41:07.496Z,48.46
2019-01-16T16:43:14.903Z,48.22
2019-01-16T16:45:22.258Z,47.94
2019-01-16T16:47:36.218Z,48.09
2019-01-16T16:49:44.805Z,47.93
2019-01-16T16:51:52.194Z,46.72
2019-01-16T16:54:07.387Z,47.02
2019-01-16T16:56:14.754Z,46.91
2019-01-16T16:58:24.185Z,47.25
2019-01-16T17:00:38.555Z,47.78
2019-01-16T17:02:49.204Z,48.23
2019-01-16T17:04:56.586Z,49.09
2019-01-16T17:07:12.192Z,49.53
2019-01-16T17:09:19.556Z,49.47
2019-01-16T17:11:28.198Z,49.43
2019-01-16T17:13:48.040Z,49.56
2019-01-16T17:15:51.141Z,49.79
2019-01-16T17:17:58.523Z,50.02
2019-01-16T17:20:12.486Z,50.04
2019-01-16T17:22:21.079Z,50.24
2019-01-16T17:24:28.467Z,50.63
2019-01-16T17:26:42.430Z,51.10
2019-01-16T17:28:49.797Z,51.39
2019-01-16T17:30:57.179Z,51.26
2019-01-16T17:33:11.558Z,51.54
2019-01-16T17:35:20.402Z,51.65
2019-01-16T17:37:27.536Z,51.86
2019-01-16T17:41:22.016Z,52.02
2019-01-16T17:43:29.626Z,51.70
2019-01-16T17:45:43.180Z,52.15
2019-01-16T17:47:51.772Z,51.76
2019-01-16T17:50:00.388Z,51.91
2019-01-16T17:52:15.172Z,52.20
2019-01-16T17:54:23.770Z,51.88
2019-01-16T17:56:31.158Z,51.85
2019-01-16T17:58:45.117Z,51.59
2019-01-16T18:00:53.719Z,52.25
2019-01-16T18:03:02.327Z,52.13
2019-01-16T18:05:18.340Z,51.64
2019-01-16T18:07:27.750Z,51.51
2019-01-16T18:09:35.138Z,51.56
2019-01-16T18:11:49.099Z,51.66
2019-01-16T18:13:56.466Z,51.72
2019-01-16T18:16:03.852Z,51.59
2019-01-16T18:18:20.271Z,51.50
2019-01-16T18:20:27.646Z,51.56
2019-01-16T18:22:35.024Z,51.79
2019-01-16T18:24:49.398Z,51.30
2019-01-16T18:26:56.764Z,51.08
2019-01-16T18:29:05.383Z,50.78
2019-01-16T18:31:19.342Z,50.66
2019-01-16T18:33:26.707Z,50.60
2019-01-16T18:35:35.327Z,50.44
2019-01-16T18:37:49.288Z,50.37
2019-01-16T18:39:57.061Z,50.34
2019-01-16T18:42:04.084Z,50.10
2019-01-16T18:44:18.410Z,50.04
2019-01-16T18:46:25.778Z,50.08
2019-01-16T18:48:33.163Z,50.01
2019-01-16T18:50:47.132Z,49.96
2019-01-16T18:52:55.800Z,50.26
2019-01-16T18:55:03.523Z,50.17
2019-01-16T18:57:18.707Z,50.43
2019-01-16T18:59:26.087Z,50.10
2019-01-16T19:01:34.692Z,50.02
2019-01-16T19:03:48.248Z,50.11
2019-01-16T19:05:56.837Z,50.58
2019-01-16T19:08:11.228Z,50.71
2019-01-16T19:10:20.625Z,50.49
2019-01-16T19:12:29.247Z,50.61
2019-01-16T19:14:43.204Z,50.89
2019-01-16T19:16:50.575Z,50.45
2019-01-16T19:18:57.969Z,50.52
2019-01-16T19:21:12.328Z,50.50
2019-01-16T19:23:19.695Z,50.72
2019-01-16T19:25:27.101Z,50.83
2019-01-16T19:27:41.462Z,50.83
2019-01-16T19:29:50.052Z,51.85
2019-01-16T19:31:58.670Z,52.24
2019-01-16T19:34:12.639Z,52.17
2019-01-16T19:36:21.228Z,52.91
2019-01-16T19:38:28.614Z,54.96
2019-01-16T19:40:42.160Z,53.63
2019-01-16T19:42:49.533Z,55.47
2019-01-16T19:44:56.915Z,53.97
2019-01-16T19:47:12.518Z,55.14
2019-01-16T19:49:21.938Z,53.84
2019-01-16T19:51:29.320Z,54.95
2019-01-16T19:53:43.279Z,54.94
2019-01-16T19:55:50.646Z,55.03
2019-01-16T19:57:58.034Z,53.28
2019-01-16T20:00:12.408Z,55.25
2019-01-16T20:02:20.999Z,55.64
2019-01-16T20:04:34.341Z,55.44
2019-01-16T20:06:48.520Z,54.43
2019-01-16T20:08:57.913Z,54.53
2019-01-16T20:11:05.294Z,55.73
2019-01-16T20:13:20.486Z,55.83
2019-01-16T20:15:27.850Z,55.36
2019-01-16T20:17:35.235Z,54.71
2019-01-16T20:19:50.446Z,54.93
2019-01-16T20:22:01.072Z,55.30
2019-01-16T20:26:27.333Z,56.10
2019-01-16T20:28:34.703Z,54.86
2019-01-16T20:30:42.088Z,54.79
2019-01-16T20:32:56.461Z,55.77
2019-01-16T20:35:09.638Z,55.68
2019-01-16T20:37:11.214Z,55.14
2019-01-16T20:39:26.409Z,55.06
2019-01-16T20:41:33.769Z,54.17
2019-01-16T20:43:41.156Z,54.62
2019-01-16T20:45:55.527Z,55.67
2019-01-16T20:48:02.896Z,55.63
2019-01-16T20:50:12.328Z,54.28
2019-01-16T20:52:27.521Z,54.53
2019-01-16T20:54:34.887Z,55.52
2019-01-16T20:56:43.561Z,56.18
2019-01-16T20:59:01.153Z,55.07
2019-01-16T21:01:10.568Z,55.61
2019-01-16T21:03:17.987Z,55.06
2019-01-16T21:05:32.328Z,55.35
2019-01-16T21:07:39.692Z,55.69
2019-01-16T21:09:48.314Z,55.46
2019-01-16T21:12:03.500Z,52.81
2019-01-16T21:16:22.353Z,54.96
2019-01-16T21:18:37.540Z,55.64
2019-01-16T21:20:52.278Z,55.73
2019-01-16T21:22:59.692Z,55.95
2019-01-16T21:25:16.388Z,56.59
2019-01-16T21:27:28.794Z,56.14
2019-01-16T21:29:44.357Z,56.66
2019-01-16T21:31:58.328Z,57.04
2019-01-16T21:34:07.733Z,57.52
2019-01-16T21:36:15.122Z,57.78
2019-01-16T21:38:31.537Z,57.54
2019-01-16T21:40:38.900Z,57.55
2019-01-16T21:42:46.290Z,57.80
2019-01-16T21:45:01.479Z,57.89
2019-01-16T21:47:10.075Z,58.35
2019-01-16T21:49:18.691Z,58.48
2019-01-16T21:51:32.244Z,58.01
2019-01-16T21:53:40.842Z,58.05
2019-01-16T21:55:55.198Z,58.45
2019-01-16T21:58:10.388Z,58.56
2019-01-16T22:00:23.887Z,59.11
2019-01-16T22:02:31.274Z,58.51
2019-01-16T22:04:46.470Z,58.68
2019-01-16T22:06:55.881Z,58.61
2019-01-16T22:09:04.498Z,58.14
2019-01-16T22:13:00.971Z,59.33
2019-01-16T22:15:08.636Z,59.59
2019-01-16T22:19:03.113Z,59.17
2019-01-16T22:21:10.723Z,59.25
2019-01-16T22:23:28.376Z,59.56
2019-01-16T22:25:35.772Z,58.63
2019-01-16T22:27:44.358Z,58.92
2019-01-16T22:29:59.550Z,58.75
2019-01-16T22:32:06.913Z,59.56
2019-01-16T22:34:23.315Z,59.12
2019-01-16T22:36:37.275Z,58.91
2019-01-16T22:38:46.689Z,59.15
2019-01-16T22:41:01.038Z,59.47
2019-01-16T22:44:57.544Z,59.30
2019-01-16T22:47:09.274Z,59.41
2019-01-16T22:49:18.710Z,59.28
2019-01-16T22:51:32.670Z,59.32
2019-01-16T22:53:43.425Z,59.02
2019-01-16T22:55:54.386Z,59.02
2019-01-16T22:58:11.472Z,58.79
2019-01-16T23:00:18.179Z,58.88
2019-01-16T23:02:26.789Z,59.09
2019-01-16T23:04:41.579Z,59.21
2019-01-16T23:06:50.165Z,59.18
2019-01-16T23:09:03.698Z,59.30
2019-01-16T23:11:17.658Z,59.25
2019-01-16T23:13:28.302Z,59.48
2019-01-16T23:15:35.702Z,59.06
2019-01-16T23:17:49.658Z,59.53
2019-01-16T23:20:00.301Z,59.50
2019-01-16T23:22:14.667Z,59.72
2019-01-16T23:24:23.260Z,60.01
2019-01-16T23:26:30.654Z,59.63
2019-01-16T23:28:44.608Z,59.43
2019-01-16T23:30:58.960Z,59.38
2019-01-16T23:35:16.987Z,59.62
2019-01-16T23:37:32.186Z,59.68
2019-01-16T23:39:40.780Z,59.73
2019-01-16T23:41:49.398Z,59.74
2019-01-16T23:44:03.776Z,60.07
2019-01-16T23:46:19.774Z,59.91
2019-01-16T23:48:28.349Z,59.67
2019-01-16T23:52:52.978Z,59.85
2019-01-16T23:55:00.344Z,59.61
2019-01-16T23:57:07.729Z,60.10
2019-01-16T23:59:21.697Z,59.37
